sensor_id;sensor_type;location;lat;lon;timestamp;pressure;altitude;pressure_sealevel;temperature;humidity
51031;BME280;37058;41.442;23.240;2022-08-20T00:01:06;99839.81;;;24.28;63.38
51031;BME280;37058;41.442;23.240;2022-08-20T00:03:39;99850.19;;;24.28;63.30
51031;BME280;37058;41.442;23.240;2022-08-20T00:06:17;99838.22;;;24.27;62.89
51031;BME280;37058;41.442;23.240;2022-08-20T00:08:44;99837.94;;;24.32;63.09
51031;BME280;37058;41.442;23.240;2022-08-20T00:11:16;99833.72;;;24.22;64.27
51031;BME280;37058;41.442;23.240;2022-08-20T00:13:47;99829.66;;;24.20;64.76
51031;BME280;37058;41.442;23.240;2022-08-20T00:16:17;99830.84;;;24.19;64.97
51031;BME280;37058;41.442;23.240;2022-08-20T00:18:43;99832.25;;;24.13;64.71
51031;BME280;37058;41.442;23.240;2022-08-20T00:21:13;99837.13;;;24.16;64.96
51031;BME280;37058;41.442;23.240;2022-08-20T00:23:44;99842.44;;;24.21;64.49
51031;BME280;37058;41.442;23.240;2022-08-20T00:26:10;99831.72;;;24.07;65.03
51031;BME280;37058;41.442;23.240;2022-08-20T00:28:38;99837.75;;;24.09;65.33
51031;BME280;37058;41.442;23.240;2022-08-20T00:31:08;99827.50;;;24.13;65.34
51031;BME280;37058;41.442;23.240;2022-08-20T00:33:36;99833.09;;;24.13;65.42
51031;BME280;37058;41.442;23.240;2022-08-20T00:36:04;99837.28;;;24.07;65.85
51031;BME280;37058;41.442;23.240;2022-08-20T00:38:41;99827.84;;;23.96;66.47
51031;BME280;37058;41.442;23.240;2022-08-20T00:41:11;99827.47;;;23.97;66.65
51031;BME280;37058;41.442;23.240;2022-08-20T00:44:06;99817.69;;;24.04;66.50
51031;BME280;37058;41.442;23.240;2022-08-20T00:46:33;99812.00;;;24.00;66.48
51031;BME280;37058;41.442;23.240;2022-08-20T00:49:00;99814.69;;;23.96;66.67
51031;BME280;37058;41.442;23.240;2022-08-20T00:53:57;99809.66;;;23.86;66.15
51031;BME280;37058;41.442;23.240;2022-08-20T00:56:26;99812.72;;;23.69;66.26
51031;BME280;37058;41.442;23.240;2022-08-20T00:58:53;99810.66;;;23.66;66.88
51031;BME280;37058;41.442;23.240;2022-08-20T01:01:20;99810.19;;;23.64;65.82
51031;BME280;37058;41.442;23.240;2022-08-20T01:03:48;99809.97;;;23.56;65.68
51031;BME280;37058;41.442;23.240;2022-08-20T01:06:14;99811.16;;;23.55;66.88
51031;BME280;37058;41.442;23.240;2022-08-20T01:08:41;99803.69;;;23.59;66.51
51031;BME280;37058;41.442;23.240;2022-08-20T01:11:09;99808.66;;;23.66;66.24
51031;BME280;37058;41.442;23.240;2022-08-20T01:13:43;99812.25;;;23.67;65.71
51031;BME280;37058;41.442;23.240;2022-08-20T01:16:24;99811.00;;;23.64;65.93
51031;BME280;37058;41.442;23.240;2022-08-20T01:18:51;99805.22;;;23.57;66.16
51031;BME280;37058;41.442;23.240;2022-08-20T01:21:19;99797.44;;;23.63;66.11
51031;BME280;37058;41.442;23.240;2022-08-20T01:23:56;99800.91;;;23.59;66.54
51031;BME280;37058;41.442;23.240;2022-08-20T01:26:38;99794.97;;;23.61;66.11
51031;BME280;37058;41.442;23.240;2022-08-20T01:29:27;99809.88;;;23.53;67.02
51031;BME280;37058;41.442;23.240;2022-08-20T01:31:55;99818.84;;;23.46;67.47
51031;BME280;37058;41.442;23.240;2022-08-20T01:34:26;99820.03;;;23.45;67.64
51031;BME280;37058;41.442;23.240;2022-08-20T01:36:55;99816.78;;;23.43;67.80
51031;BME280;37058;41.442;23.240;2022-08-20T01:39:34;99814.13;;;23.34;67.29
51031;BME280;37058;41.442;23.240;2022-08-20T01:42:12;99810.44;;;23.30;67.07
51031;BME280;37058;41.442;23.240;2022-08-20T01:44:43;99804.84;;;23.30;67.19
51031;BME280;37058;41.442;23.240;2022-08-20T01:47:29;99811.31;;;23.34;66.97
51031;BME280;37058;41.442;23.240;2022-08-20T01:50:03;99821.41;;;23.39;66.62
51031;BME280;37058;41.442;23.240;2022-08-20T01:53:05;99823.53;;;23.42;67.04
51031;BME280;37058;41.442;23.240;2022-08-20T01:55:35;99817.28;;;23.33;67.22
51031;BME280;37058;41.442;23.240;2022-08-20T01:58:01;99818.66;;;23.27;67.37
51031;BME280;37058;41.442;23.240;2022-08-20T02:00:29;99829.81;;;23.27;67.10
51031;BME280;37058;41.442;23.240;2022-08-20T02:02:54;99835.28;;;23.23;67.03
51031;BME280;37058;41.442;23.240;2022-08-20T02:05:20;99832.28;;;23.16;67.49
51031;BME280;37058;41.442;23.240;2022-08-20T02:07:47;99824.28;;;23.14;67.39
51031;BME280;37058;41.442;23.240;2022-08-20T02:10:15;99823.94;;;23.16;67.09
51031;BME280;37058;41.442;23.240;2022-08-20T02:12:42;99824.94;;;23.24;66.63
51031;BME280;37058;41.442;23.240;2022-08-20T02:15:09;99824.47;;;23.22;66.81
51031;BME280;37058;41.442;23.240;2022-08-20T02:17:36;99835.53;;;23.18;67.41
51031;BME280;37058;41.442;23.240;2022-08-20T02:20:16;99837.06;;;23.03;68.14
51031;BME280;37058;41.442;23.240;2022-08-20T02:22:51;99834.25;;;22.79;69.52
51031;BME280;37058;41.442;23.240;2022-08-20T02:25:22;99841.13;;;22.69;69.77
51031;BME280;37058;41.442;23.240;2022-08-20T02:27:51;99838.34;;;22.69;69.58
51031;BME280;37058;41.442;23.240;2022-08-20T02:30:28;99829.31;;;22.72;69.37
51031;BME280;37058;41.442;23.240;2022-08-20T02:33:00;99838.94;;;22.75;69.15
51031;BME280;37058;41.442;23.240;2022-08-20T02:35:27;99850.28;;;22.82;68.98
51031;BME280;37058;41.442;23.240;2022-08-20T02:37:53;99849.69;;;22.76;68.80
51031;BME280;37058;41.442;23.240;2022-08-20T02:40:23;99849.03;;;22.67;69.49
51031;BME280;37058;41.442;23.240;2022-08-20T02:42:51;99847.41;;;22.54;70.12
51031;BME280;37058;41.442;23.240;2022-08-20T02:45:19;99837.63;;;22.47;70.34
51031;BME280;37058;41.442;23.240;2022-08-20T02:47:47;99837.28;;;22.37;70.96
51031;BME280;37058;41.442;23.240;2022-08-20T02:50:18;99849.09;;;22.21;71.56
51031;BME280;37058;41.442;23.240;2022-08-20T02:52:45;99854.59;;;22.09;72.12
51031;BME280;37058;41.442;23.240;2022-08-20T02:55:12;99853.09;;;22.12;72.38
51031;BME280;37058;41.442;23.240;2022-08-20T02:57:38;99853.41;;;22.10;72.24
51031;BME280;37058;41.442;23.240;2022-08-20T03:00:13;99850.84;;;22.05;72.26
51031;BME280;37058;41.442;23.240;2022-08-20T03:02:40;99855.28;;;22.06;72.50
51031;BME280;37058;41.442;23.240;2022-08-20T03:05:07;99851.81;;;22.09;72.39
51031;BME280;37058;41.442;23.240;2022-08-20T03:08:00;99864.09;;;22.08;72.38
51031;BME280;37058;41.442;23.240;2022-08-20T03:10:32;99862.34;;;22.03;72.87
51031;BME280;37058;41.442;23.240;2022-08-20T03:13:00;99865.44;;;22.02;73.28
51031;BME280;37058;41.442;23.240;2022-08-20T03:15:28;99868.97;;;22.11;72.97
51031;BME280;37058;41.442;23.240;2022-08-20T03:17:55;99872.66;;;22.03;73.29
51031;BME280;37058;41.442;23.240;2022-08-20T03:20:21;99874.25;;;22.04;73.00
51031;BME280;37058;41.442;23.240;2022-08-20T03:22:47;99881.09;;;22.06;72.93
51031;BME280;37058;41.442;23.240;2022-08-20T03:25:14;99875.22;;;22.08;72.83
51031;BME280;37058;41.442;23.240;2022-08-20T03:27:41;99885.38;;;22.04;73.05
51031;BME280;37058;41.442;23.240;2022-08-20T03:30:11;99881.44;;;22.05;72.60
51031;BME280;37058;41.442;23.240;2022-08-20T03:32:38;99888.91;;;22.13;72.65
51031;BME280;37058;41.442;23.240;2022-08-20T03:35:07;99889.34;;;22.15;72.80
51031;BME280;37058;41.442;23.240;2022-08-20T03:37:35;99881.84;;;22.16;72.94
51031;BME280;37058;41.442;23.240;2022-08-20T03:40:05;99891.94;;;22.20;72.53
51031;BME280;37058;41.442;23.240;2022-08-20T03:42:32;99891.28;;;22.23;72.58
51031;BME280;37058;41.442;23.240;2022-08-20T03:44:58;99889.16;;;22.20;72.69
51031;BME280;37058;41.442;23.240;2022-08-20T03:47:23;99893.09;;;22.19;72.63
51031;BME280;37058;41.442;23.240;2022-08-20T03:49:50;99891.28;;;22.23;72.29
51031;BME280;37058;41.442;23.240;2022-08-20T03:52:15;99895.56;;;22.33;72.24
51031;BME280;37058;41.442;23.240;2022-08-20T03:54:42;99888.41;;;22.44;71.72
51031;BME280;37058;41.442;23.240;2022-08-20T03:57:15;99893.44;;;22.51;71.27
51031;BME280;37058;41.442;23.240;2022-08-20T03:59:42;99887.97;;;22.55;69.83
51031;BME280;37058;41.442;23.240;2022-08-20T04:02:10;99893.03;;;22.40;70.45
51031;BME280;37058;41.442;23.240;2022-08-20T04:04:38;99885.84;;;22.39;70.75
51031;BME280;37058;41.442;23.240;2022-08-20T04:07:19;99881.91;;;22.40;71.16
51031;BME280;37058;41.442;23.240;2022-08-20T04:09:51;99884.34;;;22.42;71.00
51031;BME280;37058;41.442;23.240;2022-08-20T04:12:18;99898.75;;;22.44;70.95
51031;BME280;37058;41.442;23.240;2022-08-20T04:14:43;99897.72;;;22.48;70.84
51031;BME280;37058;41.442;23.240;2022-08-20T04:17:13;99903.84;;;22.54;70.26
51031;BME280;37058;41.442;23.240;2022-08-20T04:19:40;99903.63;;;22.59;69.75
51031;BME280;37058;41.442;23.240;2022-08-20T04:22:07;99905.00;;;22.65;69.15
51031;BME280;37058;41.442;23.240;2022-08-20T04:24:34;99896.22;;;22.76;69.17
51031;BME280;37058;41.442;23.240;2022-08-20T04:27:01;99901.78;;;22.88;68.95
51031;BME280;37058;41.442;23.240;2022-08-20T04:29:28;99898.06;;;22.96;69.04
51031;BME280;37058;41.442;23.240;2022-08-20T04:31:54;99892.66;;;23.00;69.05
51031;BME280;37058;41.442;23.240;2022-08-20T04:34:20;99889.88;;;23.00;68.77
51031;BME280;37058;41.442;23.240;2022-08-20T04:36:47;99899.81;;;22.88;69.29
51031;BME280;37058;41.442;23.240;2022-08-20T04:39:14;99902.50;;;22.85;69.93
51031;BME280;37058;41.442;23.240;2022-08-20T04:41:41;99898.06;;;22.84;70.75
51031;BME280;37058;41.442;23.240;2022-08-20T04:44:08;99902.34;;;22.93;70.37
51031;BME280;37058;41.442;23.240;2022-08-20T04:46:37;99894.28;;;23.01;70.16
51031;BME280;37058;41.442;23.240;2022-08-20T04:49:04;99902.97;;;23.11;69.79
51031;BME280;37058;41.442;23.240;2022-08-20T04:51:31;99912.47;;;23.23;68.93
51031;BME280;37058;41.442;23.240;2022-08-20T04:53:59;99905.97;;;23.19;69.49
51031;BME280;37058;41.442;23.240;2022-08-20T04:56:31;99898.28;;;23.40;68.82
51031;BME280;37058;41.442;23.240;2022-08-20T04:59:04;99905.00;;;23.51;68.90
51031;BME280;37058;41.442;23.240;2022-08-20T05:01:31;99900.31;;;23.68;68.26
51031;BME280;37058;41.442;23.240;2022-08-20T05:03:58;99902.50;;;23.74;67.87
51031;BME280;37058;41.442;23.240;2022-08-20T05:06:30;99904.69;;;23.81;68.41
51031;BME280;37058;41.442;23.240;2022-08-20T05:08:58;99904.41;;;23.98;67.81
51031;BME280;37058;41.442;23.240;2022-08-20T05:11:24;99912.72;;;24.11;67.81
51031;BME280;37058;41.442;23.240;2022-08-20T05:13:50;99915.41;;;24.23;67.56
51031;BME280;37058;41.442;23.240;2022-08-20T05:16:18;99915.31;;;24.48;66.81
51031;BME280;37058;41.442;23.240;2022-08-20T05:18:44;99916.59;;;24.66;64.82
51031;BME280;37058;41.442;23.240;2022-08-20T05:21:11;99909.84;;;24.83;63.27
51031;BME280;37058;41.442;23.240;2022-08-20T05:23:38;99913.25;;;25.08;63.02
51031;BME280;37058;41.442;23.240;2022-08-20T05:26:09;99906.09;;;25.26;61.88
51031;BME280;37058;41.442;23.240;2022-08-20T05:28:37;99901.00;;;25.48;59.75
51031;BME280;37058;41.442;23.240;2022-08-20T05:31:05;99905.59;;;25.76;58.39
51031;BME280;37058;41.442;23.240;2022-08-20T05:33:36;99904.59;;;26.03;57.88
51031;BME280;37058;41.442;23.240;2022-08-20T05:36:05;99897.09;;;26.30;55.61
51031;BME280;37058;41.442;23.240;2022-08-20T05:38:33;99892.03;;;26.59;54.77
51031;BME280;37058;41.442;23.240;2022-08-20T05:41:00;99900.31;;;26.75;53.69
51031;BME280;37058;41.442;23.240;2022-08-20T05:43:26;99901.22;;;26.83;55.23
51031;BME280;37058;41.442;23.240;2022-08-20T05:45:52;99899.50;;;27.01;54.89
51031;BME280;37058;41.442;23.240;2022-08-20T05:48:22;99894.66;;;27.21;55.71
51031;BME280;37058;41.442;23.240;2022-08-20T05:50:50;99887.72;;;27.41;54.27
51031;BME280;37058;41.442;23.240;2022-08-20T05:53:18;99879.03;;;27.50;53.90
51031;BME280;37058;41.442;23.240;2022-08-20T05:55:44;99876.31;;;27.57;53.72
51031;BME280;37058;41.442;23.240;2022-08-20T05:58:24;99878.94;;;27.73;52.66
51031;BME280;37058;41.442;23.240;2022-08-20T06:00:52;99876.56;;;27.75;52.63
51031;BME280;37058;41.442;23.240;2022-08-20T06:03:18;99872.91;;;28.05;52.02
51031;BME280;37058;41.442;23.240;2022-08-20T06:06:04;99880.31;;;28.61;51.27
51031;BME280;37058;41.442;23.240;2022-08-20T06:08:30;99874.06;;;29.37;49.32
51031;BME280;37058;41.442;23.240;2022-08-20T06:10:56;99874.31;;;29.95;48.45
51031;BME280;37058;41.442;23.240;2022-08-20T06:13:22;99875.25;;;30.35;47.52
51031;BME280;37058;41.442;23.240;2022-08-20T06:15:48;99862.00;;;31.00;46.28
51031;BME280;37058;41.442;23.240;2022-08-20T06:18:14;99870.97;;;31.97;44.02
51031;BME280;37058;41.442;23.240;2022-08-20T06:20:40;99868.94;;;33.09;41.23
51031;BME280;37058;41.442;23.240;2022-08-20T06:23:06;99880.03;;;33.99;39.39
51031;BME280;37058;41.442;23.240;2022-08-20T06:25:33;99864.81;;;34.94;37.36
51031;BME280;37058;41.442;23.240;2022-08-20T06:28:02;99855.63;;;35.90;35.63
51031;BME280;37058;41.442;23.240;2022-08-20T06:30:28;99841.25;;;36.83;33.91
51031;BME280;37058;41.442;23.240;2022-08-20T06:32:54;99854.00;;;37.24;32.40
51031;BME280;37058;41.442;23.240;2022-08-20T06:35:20;99852.25;;;37.85;32.15
51031;BME280;37058;41.442;23.240;2022-08-20T06:37:46;99840.53;;;38.59;30.29
51031;BME280;37058;41.442;23.240;2022-08-20T06:40:19;99839.06;;;39.03;29.32
51031;BME280;37058;41.442;23.240;2022-08-20T06:42:46;99834.00;;;39.63;28.74
51031;BME280;37058;41.442;23.240;2022-08-20T06:45:16;99832.75;;;40.36;27.92
51031;BME280;37058;41.442;23.240;2022-08-20T06:47:45;99833.66;;;40.73;27.57
51031;BME280;37058;41.442;23.240;2022-08-20T06:50:16;99830.19;;;40.79;27.44
51031;BME280;37058;41.442;23.240;2022-08-20T06:52:43;99830.53;;;39.47;29.17
51031;BME280;37058;41.442;23.240;2022-08-20T06:55:11;99831.47;;;38.74;29.92
51031;BME280;37058;41.442;23.240;2022-08-20T06:57:38;99833.13;;;37.98;31.25
51031;BME280;37058;41.442;23.240;2022-08-20T07:00:16;99826.13;;;37.31;31.96
51031;BME280;37058;41.442;23.240;2022-08-20T07:02:43;99824.97;;;36.51;33.00
51031;BME280;37058;41.442;23.240;2022-08-20T07:05:12;99829.78;;;35.85;33.62
51031;BME280;37058;41.442;23.240;2022-08-20T07:07:38;99827.09;;;35.57;34.52
51031;BME280;37058;41.442;23.240;2022-08-20T07:10:11;99828.44;;;35.33;35.21
51031;BME280;37058;41.442;23.240;2022-08-20T07:12:37;99833.47;;;34.78;36.03
51031;BME280;37058;41.442;23.240;2022-08-20T07:15:07;99832.56;;;34.61;36.16
51031;BME280;37058;41.442;23.240;2022-08-20T07:17:34;99830.81;;;34.44;37.00
51031;BME280;37058;41.442;23.240;2022-08-20T07:20:13;99834.88;;;34.43;36.74
51031;BME280;37058;41.442;23.240;2022-08-20T07:39:50;99819.59;;;34.37;38.89
51031;BME280;37058;41.442;23.240;2022-08-20T07:42:17;99816.19;;;34.45;39.66
51031;BME280;37058;41.442;23.240;2022-08-20T07:44:43;99823.84;;;34.48;38.84
51031;BME280;37058;41.442;23.240;2022-08-20T07:47:09;99819.63;;;34.33;38.64
51031;BME280;37058;41.442;23.240;2022-08-20T07:49:39;99821.28;;;33.76;39.24
51031;BME280;37058;41.442;23.240;2022-08-20T07:52:06;99815.59;;;33.45;40.02
51031;BME280;37058;41.442;23.240;2022-08-20T07:54:32;99826.69;;;33.29;40.99
51031;BME280;37058;41.442;23.240;2022-08-20T07:57:01;99817.34;;;33.32;40.67
51031;BME280;37058;41.442;23.240;2022-08-20T07:59:29;99811.94;;;33.11;42.35
51031;BME280;37058;41.442;23.240;2022-08-20T08:01:55;99815.66;;;33.04;41.40
51031;BME280;37058;41.442;23.240;2022-08-20T08:04:20;99805.75;;;33.23;41.49
51031;BME280;37058;41.442;23.240;2022-08-20T08:06:51;99802.06;;;33.26;41.11
51031;BME280;37058;41.442;23.240;2022-08-20T08:09:17;99807.09;;;33.45;40.38
51031;BME280;37058;41.442;23.240;2022-08-20T08:11:48;99798.88;;;33.58;39.64
51031;BME280;37058;41.442;23.240;2022-08-20T08:14:21;99801.84;;;33.78;39.07
51031;BME280;37058;41.442;23.240;2022-08-20T08:16:48;99798.16;;;33.81;39.23
51031;BME280;37058;41.442;23.240;2022-08-20T08:19:16;99790.03;;;33.83;38.66
51031;BME280;37058;41.442;23.240;2022-08-20T08:21:43;99791.84;;;33.97;38.99
51031;BME280;37058;41.442;23.240;2022-08-20T08:24:10;99786.75;;;33.85;37.85
51031;BME280;37058;41.442;23.240;2022-08-20T08:26:36;99793.25;;;33.85;38.25
51031;BME280;37058;41.442;23.240;2022-08-20T08:29:03;99792.09;;;33.79;38.60
51031;BME280;37058;41.442;23.240;2022-08-20T08:31:32;99783.44;;;33.90;37.94
51031;BME280;37058;41.442;23.240;2022-08-20T08:33:58;99782.47;;;34.00;37.63
51031;BME280;37058;41.442;23.240;2022-08-20T08:36:25;99782.06;;;34.02;36.70
51031;BME280;37058;41.442;23.240;2022-08-20T08:38:52;99773.56;;;34.02;36.53
51031;BME280;37058;41.442;23.240;2022-08-20T08:41:34;99775.28;;;33.96;37.40
51031;BME280;37058;41.442;23.240;2022-08-20T08:44:16;99771.63;;;33.95;36.70
51031;BME280;37058;41.442;23.240;2022-08-20T08:46:46;99769.44;;;34.06;36.75
51031;BME280;37058;41.442;23.240;2022-08-20T08:49:32;99759.47;;;33.98;36.70
51031;BME280;37058;41.442;23.240;2022-08-20T08:52:02;99768.09;;;33.87;36.83
51031;BME280;37058;41.442;23.240;2022-08-20T08:54:32;99762.78;;;33.93;36.64
51031;BME280;37058;41.442;23.240;2022-08-20T08:57:00;99768.66;;;34.06;37.18
51031;BME280;37058;41.442;23.240;2022-08-20T08:59:30;99763.38;;;34.08;37.43
51031;BME280;37058;41.442;23.240;2022-08-20T09:01:59;99751.66;;;34.06;37.13
51031;BME280;37058;41.442;23.240;2022-08-20T09:04:35;99761.56;;;34.21;38.03
51031;BME280;37058;41.442;23.240;2022-08-20T09:07:05;99759.41;;;34.29;36.50
51031;BME280;37058;41.442;23.240;2022-08-20T09:09:35;99755.56;;;34.39;36.40
51031;BME280;37058;41.442;23.240;2022-08-20T09:12:10;99754.63;;;34.46;36.63
51031;BME280;37058;41.442;23.240;2022-08-20T09:14:37;99751.94;;;34.62;36.81
51031;BME280;37058;41.442;23.240;2022-08-20T09:17:04;99754.06;;;34.78;36.80
51031;BME280;37058;41.442;23.240;2022-08-20T09:19:30;99752.56;;;34.93;36.46
51031;BME280;37058;41.442;23.240;2022-08-20T09:21:56;99753.50;;;35.07;36.06
51031;BME280;37058;41.442;23.240;2022-08-20T09:24:23;99753.84;;;35.12;35.75
51031;BME280;37058;41.442;23.240;2022-08-20T09:26:49;99758.78;;;35.08;36.22
51031;BME280;37058;41.442;23.240;2022-08-20T09:29:15;99758.94;;;34.78;35.59
51031;BME280;37058;41.442;23.240;2022-08-20T09:31:41;99758.00;;;34.64;35.39
51031;BME280;37058;41.442;23.240;2022-08-20T09:34:07;99756.53;;;34.52;35.77
51031;BME280;37058;41.442;23.240;2022-08-20T09:36:33;99760.25;;;34.49;35.70
51031;BME280;37058;41.442;23.240;2022-08-20T09:39:00;99753.63;;;34.56;35.35
51031;BME280;37058;41.442;23.240;2022-08-20T09:41:27;99752.00;;;34.59;34.86
51031;BME280;37058;41.442;23.240;2022-08-20T09:43:52;99753.41;;;34.70;35.17
51031;BME280;37058;41.442;23.240;2022-08-20T09:46:19;99748.53;;;34.71;34.46
51031;BME280;37058;41.442;23.240;2022-08-20T09:48:45;99747.81;;;34.67;33.34
51031;BME280;37058;41.442;23.240;2022-08-20T09:51:11;99742.88;;;34.71;33.72
51031;BME280;37058;41.442;23.240;2022-08-20T09:53:37;99742.72;;;34.78;34.12
51031;BME280;37058;41.442;23.240;2022-08-20T09:56:03;99737.34;;;34.84;34.89
51031;BME280;37058;41.442;23.240;2022-08-20T10:01:16;99726.66;;;34.71;35.17
51031;BME280;37058;41.442;23.240;2022-08-20T10:03:44;99732.63;;;34.77;36.09
51031;BME280;37058;41.442;23.240;2022-08-20T10:06:12;99725.56;;;34.65;34.08
51031;BME280;37058;41.442;23.240;2022-08-20T10:08:39;99720.53;;;34.73;33.72
51031;BME280;37058;41.442;23.240;2022-08-20T10:11:06;99715.38;;;34.68;34.25
51031;BME280;37058;41.442;23.240;2022-08-20T10:13:31;99726.09;;;34.57;33.72
51031;BME280;37058;41.442;23.240;2022-08-20T10:15:57;99725.06;;;34.47;35.03
51031;BME280;37058;41.442;23.240;2022-08-20T10:18:23;99719.53;;;34.40;35.08
51031;BME280;37058;41.442;23.240;2022-08-20T10:20:49;99719.91;;;34.42;35.75
51031;BME280;37058;41.442;23.240;2022-08-20T10:23:15;99716.13;;;34.48;34.96
51031;BME280;37058;41.442;23.240;2022-08-20T10:25:41;99703.44;;;34.57;35.80
51031;BME280;37058;41.442;23.240;2022-08-20T10:28:07;99707.47;;;34.59;34.72
51031;BME280;37058;41.442;23.240;2022-08-20T10:30:34;99700.28;;;34.51;34.26
51031;BME280;37058;41.442;23.240;2022-08-20T10:33:00;99695.97;;;34.43;35.20
51031;BME280;37058;41.442;23.240;2022-08-20T10:35:26;99695.38;;;34.31;35.61
51031;BME280;37058;41.442;23.240;2022-08-20T10:37:52;99688.09;;;34.30;34.67
51031;BME280;37058;41.442;23.240;2022-08-20T10:40:18;99681.16;;;34.12;35.12
51031;BME280;37058;41.442;23.240;2022-08-20T10:42:44;99680.94;;;33.99;34.51
51031;BME280;37058;41.442;23.240;2022-08-20T10:45:13;99672.63;;;33.88;35.81
51031;BME280;37058;41.442;23.240;2022-08-20T10:47:40;99674.91;;;33.73;35.41
51031;BME280;37058;41.442;23.240;2022-08-20T10:50:12;99665.28;;;33.67;36.10
51031;BME280;37058;41.442;23.240;2022-08-20T10:52:38;99665.66;;;33.69;36.85
51031;BME280;37058;41.442;23.240;2022-08-20T10:55:05;99662.19;;;33.58;36.74
51031;BME280;37058;41.442;23.240;2022-08-20T10:57:32;99661.81;;;33.56;37.38
51031;BME280;37058;41.442;23.240;2022-08-20T11:00:01;99662.72;;;33.76;36.39
51031;BME280;37058;41.442;23.240;2022-08-20T11:02:27;99655.19;;;33.89;34.89
51031;BME280;37058;41.442;23.240;2022-08-20T11:04:54;99658.72;;;33.97;33.99
51031;BME280;37058;41.442;23.240;2022-08-20T11:07:35;99651.97;;;34.15;34.61
51031;BME280;37058;41.442;23.240;2022-08-20T11:10:02;99643.13;;;34.33;33.40
51031;BME280;37058;41.442;23.240;2022-08-20T11:12:28;99648.66;;;34.40;32.22
51031;BME280;37058;41.442;23.240;2022-08-20T11:14:54;99633.56;;;34.46;31.83
51031;BME280;37058;41.442;23.240;2022-08-20T11:17:33;99628.06;;;34.59;30.36
51031;BME280;37058;41.442;23.240;2022-08-20T11:20:02;99629.38;;;34.74;30.39
51031;BME280;37058;41.442;23.240;2022-08-20T11:22:29;99634.41;;;34.87;30.92
51031;BME280;37058;41.442;23.240;2022-08-20T11:24:55;99624.91;;;34.93;30.52
51031;BME280;37058;41.442;23.240;2022-08-20T11:27:30;99624.66;;;35.04;30.49
51031;BME280;37058;41.442;23.240;2022-08-20T11:29:57;99619.00;;;35.04;30.67
51031;BME280;37058;41.442;23.240;2022-08-20T11:32:23;99611.59;;;35.10;30.51
51031;BME280;37058;41.442;23.240;2022-08-20T11:34:50;99614.47;;;35.07;29.69
51031;BME280;37058;41.442;23.240;2022-08-20T11:37:18;99603.78;;;35.14;29.35
51031;BME280;37058;41.442;23.240;2022-08-20T11:39:45;99592.66;;;35.24;29.61
51031;BME280;37058;41.442;23.240;2022-08-20T11:42:11;99592.31;;;35.38;30.38
51031;BME280;37058;41.442;23.240;2022-08-20T11:44:37;99587.69;;;35.44;30.95
51031;BME280;37058;41.442;23.240;2022-08-20T11:47:06;99582.75;;;35.48;32.08
51031;BME280;37058;41.442;23.240;2022-08-20T11:49:35;99591.63;;;35.50;31.60
51031;BME280;37058;41.442;23.240;2022-08-20T11:52:01;99578.13;;;35.38;32.76
51031;BME280;37058;41.442;23.240;2022-08-20T11:54:28;99574.41;;;35.41;33.28
51031;BME280;37058;41.442;23.240;2022-08-20T11:56:57;99583.34;;;35.39;33.58
51031;BME280;37058;41.442;23.240;2022-08-20T11:59:24;99585.75;;;35.41;33.66
51031;BME280;37058;41.442;23.240;2022-08-20T12:01:50;99579.19;;;35.44;31.95
51031;BME280;37058;41.442;23.240;2022-08-20T12:04:19;99575.00;;;35.49;32.77
51031;BME280;37058;41.442;23.240;2022-08-20T12:06:45;99575.13;;;35.45;33.16
51031;BME280;37058;41.442;23.240;2022-08-20T12:09:11;99563.41;;;35.43;33.03
51031;BME280;37058;41.442;23.240;2022-08-20T12:11:37;99559.84;;;35.39;32.81
51031;BME280;37058;41.442;23.240;2022-08-20T12:14:03;99556.09;;;35.42;32.18
51031;BME280;37058;41.442;23.240;2022-08-20T12:16:29;99546.00;;;35.41;33.47
51031;BME280;37058;41.442;23.240;2022-08-20T12:18:54;99541.59;;;35.40;34.00
51031;BME280;37058;41.442;23.240;2022-08-20T12:21:20;99535.38;;;35.45;33.89
51031;BME280;37058;41.442;23.240;2022-08-20T12:23:46;99532.53;;;35.45;32.77
51031;BME280;37058;41.442;23.240;2022-08-20T12:26:12;99533.94;;;35.53;34.05
51031;BME280;37058;41.442;23.240;2022-08-20T12:28:38;99534.13;;;35.63;33.12
51031;BME280;37058;41.442;23.240;2022-08-20T12:31:04;99535.72;;;35.64;33.44
51031;BME280;37058;41.442;23.240;2022-08-20T12:33:30;99523.84;;;35.69;33.82
51031;BME280;37058;41.442;23.240;2022-08-20T12:35:56;99528.19;;;35.73;32.48
51031;BME280;37058;41.442;23.240;2022-08-20T12:38:22;99521.91;;;35.66;34.41
51031;BME280;37058;41.442;23.240;2022-08-20T12:40:48;99518.34;;;35.62;34.92
51031;BME280;37058;41.442;23.240;2022-08-20T12:43:14;99515.75;;;35.67;34.73
51031;BME280;37058;41.442;23.240;2022-08-20T12:45:40;99517.25;;;35.72;33.21
51031;BME280;37058;41.442;23.240;2022-08-20T12:48:10;99510.31;;;35.73;32.65
51031;BME280;37058;41.442;23.240;2022-08-20T12:50:39;99510.13;;;35.80;31.52
51031;BME280;37058;41.442;23.240;2022-08-20T12:53:06;99509.94;;;35.87;31.68
51031;BME280;37058;41.442;23.240;2022-08-20T12:55:33;99506.91;;;35.94;31.91
51031;BME280;37058;41.442;23.240;2022-08-20T12:58:02;99502.38;;;35.97;31.80
51031;BME280;37058;41.442;23.240;2022-08-20T13:00:32;99505.00;;;36.04;31.99
51031;BME280;37058;41.442;23.240;2022-08-20T13:03:01;99500.75;;;36.12;31.81
51031;BME280;37058;41.442;23.240;2022-08-20T13:05:29;99498.16;;;36.18;31.33
51031;BME280;37058;41.442;23.240;2022-08-20T13:07:55;99495.66;;;36.20;30.84
51031;BME280;37058;41.442;23.240;2022-08-20T13:10:29;99496.72;;;36.26;30.73
51031;BME280;37058;41.442;23.240;2022-08-20T13:12:56;99494.19;;;36.28;30.56
51031;BME280;37058;41.442;23.240;2022-08-20T13:15:23;99496.47;;;36.33;31.77
51031;BME280;37058;41.442;23.240;2022-08-20T13:18:00;99487.84;;;36.37;32.65
51031;BME280;37058;41.442;23.240;2022-08-20T13:20:28;99484.91;;;36.40;33.13